Time;durP1;ratioP1;P1;durP2;ratioP2;P2;SDS_P1;SDS_P2;PMS_P1;PMS_P2;Temp;Humidity;BMP_temperature;BMP_pressure;BME280_temperature;BME280_humidity;BME280_pressure;Samples;Min_cycle;Max_cycle;Signal;HPM_P1;HPM_P2
2022/11/12 00:00:27;;;;;;;62.92;11.77;;;9.70;89.70;;;;;;5002161;28;20030;-62
2022/11/12 00:02:53;;;;;;;39.78;10.15;;;9.70;89.50;;;;;;5001532;28;20128;-62
2022/11/12 00:05:19;;;;;;;33.67;9.73;;;9.60;89.40;;;;;;5002522;28;20038;-61
2022/11/12 00:07:44;;;;;;;38.03;9.88;;;9.70;89.50;;;;;;5002984;28;20046;-62
2022/11/12 00:10:11;;;;;;;31.95;9.93;;;9.60;89.50;;;;;;5003106;28;20498;-62
2022/11/12 00:12:36;;;;;;;46.15;8.90;;;9.70;89.70;;;;;;4997985;28;20045;-62
2022/11/12 00:15:02;;;;;;;46.05;9.88;;;9.60;89.70;;;;;;5002912;28;20748;-61
2022/11/12 00:17:28;;;;;;;37.70;9.77;;;9.60;89.70;;;;;;5001296;28;20046;-61
2022/11/12 00:19:54;;;;;;;53.13;9.93;;;9.60;89.70;;;;;;5002441;28;20034;-60
2022/11/12 00:22:20;;;;;;;48.28;9.20;;;9.60;89.70;;;;;;5004821;28;20107;-60
2022/11/12 00:24:46;;;;;;;50.30;10.20;;;9.60;89.70;;;;;;5003249;28;20030;-60
2022/11/12 00:27:12;;;;;;;66.32;10.25;;;9.60;89.60;;;;;;5001011;28;20041;-59
2022/11/12 00:29:37;;;;;;;107.75;9.98;;;9.60;89.50;;;;;;5005064;28;20508;-63
2022/11/12 00:32:07;;;;;;;54.45;9.05;;;9.60;89.50;;;;;;5007655;28;20129;-63
2022/11/12 00:34:33;;;;;;;48.80;9.65;;;9.60;89.50;;;;;;5007401;28;20037;-63
2022/11/12 00:36:59;;;;;;;39.90;8.90;;;9.60;89.60;;;;;;5001541;28;20077;-61
2022/11/12 00:39:25;;;;;;;24.95;9.20;;;9.60;89.60;;;;;;4999551;28;20030;-61
2022/11/12 00:41:51;;;;;;;44.97;9.13;;;9.60;89.60;;;;;;5001086;28;20037;-63
2022/11/12 00:44:16;;;;;;;39.70;9.18;;;9.50;89.60;;;;;;5001843;28;20034;-63
2022/11/12 00:46:42;;;;;;;59.75;9.65;;;9.50;89.70;;;;;;4999297;28;20030;-62
2022/11/12 00:49:07;;;;;;;70.55;8.70;;;9.50;89.60;;;;;;4998866;28;20263;-62
2022/11/12 00:51:34;;;;;;;49.90;9.10;;;9.50;89.50;;;;;;5001312;28;20034;-63
2022/11/12 00:54:00;;;;;;;77.15;8.32;;;9.50;89.30;;;;;;5007032;28;20409;-63
2022/11/12 00:56:25;;;;;;;72.88;8.98;;;9.50;90.00;;;;;;5006928;28;20119;-62
2022/11/12 00:58:51;;;;;;;40.22;8.77;;;9.40;89.20;;;;;;5007145;28;20497;-61
2022/11/12 01:01:18;;;;;;;79.43;7.93;;;9.30;89.40;;;;;;5002254;28;20076;-63
2022/11/12 01:03:43;;;;;;;33.67;7.38;;;9.30;89.60;;;;;;5000028;28;20038;-63
2022/11/12 01:06:15;;;;;;;43.55;6.95;;;9.30;90.20;;;;;;5003715;28;20030;-60
2022/11/12 01:08:42;;;;;;;37.33;7.60;;;9.30;89.90;;;;;;5000745;28;20046;-63
2022/11/12 01:11:13;;;;;;;48.08;7.55;;;9.30;89.90;;;;;;4996317;28;20030;-63
2022/11/12 01:13:41;;;;;;;52.28;7.40;;;9.30;90.00;;;;;;5001162;28;20418;-63
2022/11/12 01:16:08;;;;;;;100.63;9.25;;;9.30;90.00;;;;;;5000169;28;20108;-62
2022/11/12 01:18:34;;;;;;;67.47;8.70;;;9.20;89.70;;;;;;4995897;28;20038;-62
2022/11/12 01:21:05;;;;;;;59.53;8.55;;;9.20;89.70;;;;;;5001013;28;20080;-60
2022/11/12 01:23:38;;;;;;;34.42;8.50;;;9.20;89.90;;;;;;5000440;28;20541;-62
2022/11/12 01:26:08;;;;;;;73.40;9.48;;;9.10;90.00;;;;;;5000549;28;20034;-63
2022/11/12 01:28:35;;;;;;;46.10;8.40;;;9.10;90.00;;;;;;5003931;28;20030;-62
2022/11/12 01:31:14;;;;;;;41.97;8.10;;;9.00;90.00;;;;;;5005273;28;20205;-62
2022/11/12 01:33:41;;;;;;;31.40;8.15;;;9.00;90.20;;;;;;5004510;28;20042;-62
2022/11/12 01:36:07;;;;;;;68.68;8.70;;;9.00;90.20;;;;;;5006331;28;20405;-62
2022/11/12 01:38:34;;;;;;;65.03;8.10;;;8.90;90.30;;;;;;5002535;28;20025;-63
2022/11/12 01:41:00;;;;;;;21.25;7.80;;;8.90;90.40;;;;;;5003627;28;20034;-61
2022/11/12 01:43:25;;;;;;;47.67;8.77;;;8.90;90.50;;;;;;5000963;28;20034;-61
2022/11/12 01:45:52;;;;;;;42.15;8.32;;;8.90;90.50;;;;;;4998648;28;20038;-62
2022/11/12 01:48:33;;;;;;;28.75;8.35;;;8.90;90.50;;;;;;4998888;28;20038;-61
2022/11/12 01:51:01;;;;;;;44.42;7.88;;;9.00;90.60;;;;;;4999054;28;20389;-62
2022/11/12 01:53:30;;;;;;;27.23;7.60;;;9.00;90.50;;;;;;5001762;28;20109;-63
2022/11/12 01:55:57;;;;;;;24.58;7.57;;;9.00;90.40;;;;;;4999084;28;20545;-62
2022/11/12 01:58:28;;;;;;;50.88;7.72;;;9.00;90.40;;;;;;4998824;28;20414;-63
2022/11/12 02:00:54;;;;;;;42.17;7.38;;;9.00;90.40;;;;;;5000939;28;20045;-63
2022/11/12 02:03:22;;;;;;;37.40;8.52;;;9.10;90.40;;;;;;5002675;28;20034;-62
2022/11/12 02:05:56;;;;;;;47.65;8.10;;;9.10;90.40;;;;;;5001674;28;20045;-61
2022/11/12 02:08:23;;;;;;;27.77;8.07;;;9.10;90.40;;;;;;5002899;28;20129;-63
2022/11/12 02:10:49;;;;;;;22.35;7.20;;;9.10;90.30;;;;;;4997553;28;20076;-63
2022/11/12 02:16:01;;;;;;;17.33;7.03;;;9.10;90.30;;;;;;5002765;28;20557;-63
2022/11/12 02:18:26;;;;;;;30.25;7.55;;;9.10;90.20;;;;;;5000301;28;20056;-62
2022/11/12 02:20:55;;;;;;;21.95;6.90;;;9.10;90.20;;;;;;4997750;28;20045;-64
2022/11/12 02:23:21;;;;;;;18.63;7.75;;;9.10;90.20;;;;;;5003184;28;20049;-62
2022/11/12 02:25:47;;;;;;;22.15;6.97;;;9.10;90.20;;;;;;5002102;28;20038;-61
2022/11/12 02:28:12;;;;;;;15.20;7.10;;;9.10;90.10;;;;;;5004572;28;20058;-62
2022/11/12 02:30:48;;;;;;;27.08;7.10;;;9.10;90.10;;;;;;5004604;28;20046;-63
2022/11/12 02:33:13;;;;;;;15.60;6.75;;;9.10;90.00;;;;;;5008081;28;20412;-64
2022/11/12 02:35:40;;;;;;;35.03;6.60;;;9.10;90.00;;;;;;5003755;28;20041;-64
2022/11/12 02:38:07;;;;;;;22.38;6.38;;;9.10;90.00;;;;;;5002987;28;20153;-63
2022/11/12 02:40:32;;;;;;;10.98;6.57;;;9.10;90.00;;;;;;5005508;28;20040;-61
2022/11/12 02:42:58;;;;;;;23.80;6.28;;;9.00;90.00;;;;;;5001323;28;20402;-60
2022/11/12 02:45:24;;;;;;;14.55;5.88;;;9.00;89.90;;;;;;5005141;28;20564;-62
2022/11/12 02:47:50;;;;;;;11.68;5.47;;;9.00;89.90;;;;;;5004495;28;20092;-63
2022/11/12 02:50:16;;;;;;;14.75;5.70;;;9.00;89.70;;;;;;5001704;28;20041;-61
2022/11/12 02:52:42;;;;;;;9.32;5.60;;;9.00;89.50;;;;;;5001325;28;20457;-62
2022/11/12 02:55:09;;;;;;;27.02;5.78;;;8.90;89.40;;;;;;5002043;28;20034;-61
2022/11/12 02:57:36;;;;;;;10.02;5.40;;;8.90;89.50;;;;;;5001875;28;20574;-60
2022/11/12 03:00:04;;;;;;;5.20;4.70;;;8.90;89.60;;;;;;5005239;28;20042;-63
2022/11/12 03:02:30;;;;;;;8.90;5.03;;;8.80;89.70;;;;;;5004755;28;20293;-62
2022/11/12 03:04:56;;;;;;;10.93;5.35;;;8.80;90.20;;;;;;5005321;28;20103;-62
2022/11/12 03:07:21;;;;;;;24.20;5.05;;;8.80;89.80;;;;;;5006245;28;20494;-63
2022/11/12 03:09:47;;;;;;;9.93;5.18;;;8.80;89.80;;;;;;5003937;28;20444;-63
2022/11/12 03:12:12;;;;;;;15.55;5.40;;;8.80;89.70;;;;;;4997341;28;20036;-62
2022/11/12 03:14:38;;;;;;;21.00;5.43;;;8.80;89.70;;;;;;5005362;28;20122;-61
2022/11/12 03:17:04;;;;;;;14.65;5.55;;;8.80;89.70;;;;;;5005256;28;20057;-61
2022/11/12 03:19:29;;;;;;;7.55;4.85;;;8.70;89.70;;;;;;5001511;28;20545;-63
2022/11/12 03:21:55;;;;;;;5.38;4.80;;;8.70;89.70;;;;;;5000845;28;21996;-62
2022/11/12 03:24:20;;;;;;;7.43;4.95;;;8.80;89.60;;;;;;5005820;28;20520;-62
2022/11/12 03:26:46;;;;;;;5.10;4.60;;;8.70;89.50;;;;;;5005519;28;20060;-62
2022/11/12 03:29:11;;;;;;;5.32;4.82;;;8.70;89.50;;;;;;5000797;28;20076;-63
2022/11/12 03:31:38;;;;;;;7.20;4.90;;;8.70;89.50;;;;;;5002367;28;20037;-63
2022/11/12 03:34:03;;;;;;;6.30;5.32;;;8.70;89.70;;;;;;5004835;28;20533;-63
2022/11/12 03:36:29;;;;;;;7.18;5.25;;;8.70;89.70;;;;;;5001768;28;20340;-61
2022/11/12 03:38:54;;;;;;;6.10;5.25;;;8.70;89.80;;;;;;5003953;28;20077;-61
2022/11/12 03:41:20;;;;;;;9.27;5.68;;;8.70;89.70;;;;;;5004689;28;20118;-64
2022/11/12 03:43:46;;;;;;;6.10;5.50;;;8.70;89.90;;;;;;5002920;28;20033;-63
2022/11/12 03:46:12;;;;;;;9.40;5.70;;;8.70;89.90;;;;;;5004127;28;20072;-62
2022/11/12 03:48:37;;;;;;;19.10;6.00;;;8.70;90.00;;;;;;5000694;28;20022;-63
2022/11/12 03:51:03;;;;;;;18.65;6.00;;;8.70;90.00;;;;;;5005565;28;20162;-62
2022/11/12 03:53:29;;;;;;;6.00;5.30;;;8.70;90.00;;;;;;5002591;28;20116;-61
2022/11/12 03:55:55;;;;;;;7.50;5.78;;;8.70;90.00;;;;;;5005097;28;20034;-61
2022/11/12 03:58:20;;;;;;;6.93;6.22;;;8.70;90.10;;;;;;5001071;28;20041;-64
2022/11/12 04:00:46;;;;;;;7.80;6.20;;;8.70;90.10;;;;;;5002443;28;20042;-62
2022/11/12 04:03:11;;;;;;;8.15;5.50;;;8.70;90.10;;;;;;5001265;28;20907;-63
2022/11/12 04:08:35;;;;;;;7.15;5.80;;;8.70;90.00;;;;;;5002610;28;20526;-63
2022/11/12 04:11:09;;;;;;;6.63;5.93;;;8.70;90.00;;;;;;4997050;28;20042;-62
2022/11/12 04:13:37;;;;;;;6.05;5.45;;;8.70;90.00;;;;;;5004028;28;20889;-62
2022/11/12 04:21:51;;;;;;;5.85;5.25;;;8.70;90.00;;;;;;5002084;28;20519;-63
2022/11/12 04:27:04;;;;;;;5.40;4.90;;;8.70;89.90;;;;;;4999456;28;20033;-61
2022/11/12 04:32:15;;;;;;;5.97;5.38;;;8.70;90.00;;;;;;4998801;28;20632;-61
2022/11/12 04:34:41;;;;;;;6.90;5.78;;;8.70;90.00;;;;;;5004132;28;20042;-63
2022/11/12 04:37:07;;;;;;;6.32;5.72;;;8.70;90.00;;;;;;5003341;28;20169;-61
2022/11/12 04:39:33;;;;;;;9.77;5.50;;;8.70;89.90;;;;;;5001881;28;20045;-62
2022/11/12 04:44:59;;;;;;;6.57;5.63;;;8.60;89.70;;;;;;5004804;28;20057;-63
2022/11/12 04:47:46;;;;;;;6.43;5.68;;;8.60;89.90;;;;;;4999977;28;20160;-63
2022/11/12 04:50:14;;;;;;;6.50;5.55;;;8.60;89.90;;;;;;5002701;28;20048;-62
2022/11/12 04:52:40;;;;;;;7.03;6.18;;;8.60;89.90;;;;;;4999943;28;20072;-63
2022/11/12 04:55:06;;;;;;;10.10;6.40;;;8.60;89.90;;;;;;5000160;28;20038;-63
2022/11/12 04:57:32;;;;;;;7.63;6.15;;;8.60;89.90;;;;;;5001035;28;20553;-62
2022/11/12 04:59:57;;;;;;;7.47;5.97;;;8.60;89.90;;;;;;5002810;28;20048;-61
2022/11/12 05:02:23;;;;;;;7.05;5.80;;;8.60;89.90;;;;;;5000891;28;20417;-64
2022/11/12 05:04:48;;;;;;;8.10;6.00;;;8.60;89.90;;;;;;4999664;28;20159;-62
2022/11/12 05:07:15;;;;;;;7.28;5.85;;;8.60;89.70;;;;;;5000136;28;20398;-63
2022/11/12 05:09:41;;;;;;;7.35;5.78;;;8.50;89.70;;;;;;4999000;28;20425;-63
2022/11/12 05:12:07;;;;;;;8.50;5.70;;;8.50;89.90;;;;;;4994525;28;20064;-64
2022/11/12 05:14:32;;;;;;;7.05;5.88;;;8.50;90.00;;;;;;5001440;28;20038;-62
2022/11/12 05:16:58;;;;;;;7.55;6.05;;;8.50;90.10;;;;;;4997742;28;20033;-62
2022/11/12 05:19:24;;;;;;;9.35;5.40;;;8.50;90.10;;;;;;4999225;28;20038;-61
2022/11/12 05:22:04;;;;;;;6.90;5.90;;;8.50;90.20;;;;;;4998653;28;20038;-62
2022/11/12 05:24:38;;;;;;;8.90;5.82;;;8.50;90.10;;;;;;4999365;28;20057;-62
2022/11/12 05:27:07;;;;;;;8.57;7.23;;;8.50;90.10;;;;;;4998558;28;20101;-63
2022/11/12 05:29:33;;;;;;;8.18;6.70;;;8.50;90.10;;;;;;5001327;28;20549;-62
2022/11/12 05:31:58;;;;;;;11.73;6.80;;;8.50;90.20;;;;;;4997222;28;20038;-63
2022/11/12 05:34:24;;;;;;;9.52;7.32;;;8.50;90.20;;;;;;4999604;28;20042;-60
2022/11/12 05:36:50;;;;;;;7.88;6.10;;;8.60;90.30;;;;;;4997593;28;20042;-63
2022/11/12 05:39:15;;;;;;;7.85;6.30;;;8.60;90.20;;;;;;5003096;28;20049;-63
2022/11/12 05:41:41;;;;;;;7.30;6.20;;;8.60;90.20;;;;;;4997347;28;20034;-60
2022/11/12 05:44:06;;;;;;;7.30;6.03;;;8.60;90.20;;;;;;5001425;28;20065;-61
2022/11/12 05:46:32;;;;;;;9.00;6.38;;;8.60;90.20;;;;;;5001136;28;20040;-63
2022/11/12 05:48:58;;;;;;;7.00;6.22;;;8.60;90.10;;;;;;5001939;28;20080;-62
2022/11/12 05:51:23;;;;;;;7.50;6.22;;;8.60;90.00;;;;;;5000927;28;20034;-63
2022/11/12 05:53:49;;;;;;;8.93;5.85;;;8.60;90.10;;;;;;5002872;28;20034;-60
2022/11/12 05:56:14;;;;;;;6.88;5.88;;;8.50;90.10;;;;;;5000649;28;20045;-61
2022/11/12 05:58:40;;;;;;;8.13;6.03;;;8.60;90.20;;;;;;4999546;28;20141;-62
2022/11/12 06:01:05;;;;;;;7.57;6.15;;;8.60;90.20;;;;;;4999642;28;20061;-62
2022/11/12 06:03:31;;;;;;;11.25;6.55;;;8.60;90.20;;;;;;5002541;28;20046;-62
2022/11/12 06:05:57;;;;;;;11.68;7.95;;;8.60;90.20;;;;;;5007327;28;20513;-63
2022/11/12 06:08:23;;;;;;;7.82;6.57;;;8.60;90.20;;;;;;5007039;28;20049;-61
2022/11/12 06:10:50;;;;;;;12.90;6.80;;;8.60;90.20;;;;;;5003693;28;20045;-61
2022/11/12 06:13:15;;;;;;;7.53;6.25;;;8.60;90.20;;;;;;5008742;28;20509;-64
2022/11/12 06:15:41;;;;;;;7.35;6.22;;;8.60;90.10;;;;;;5005882;28;20096;-63
2022/11/12 06:18:07;;;;;;;7.43;6.18;;;8.60;90.10;;;;;;5007442;28;20037;-61
2022/11/12 06:20:33;;;;;;;18.88;6.32;;;8.60;90.10;;;;;;5007506;28;20275;-63
2022/11/12 06:22:58;;;;;;;12.82;7.38;;;8.60;90.10;;;;;;5008244;28;20281;-63
2022/11/12 06:25:24;;;;;;;11.65;6.85;;;8.60;90.00;;;;;;5008477;28;20433;-63
2022/11/12 06:27:50;;;;;;;7.60;6.30;;;8.60;90.00;;;;;;5008131;28;20042;-63
2022/11/12 06:30:15;;;;;;;7.75;6.22;;;8.60;90.00;;;;;;5009777;28;20044;-63
2022/11/12 06:32:41;;;;;;;7.15;5.78;;;8.50;90.10;;;;;;5007100;28;20525;-62
2022/11/12 06:35:07;;;;;;;8.45;5.32;;;8.60;90.20;;;;;;5005772;28;20045;-63
2022/11/12 06:37:32;;;;;;;6.45;5.47;;;8.50;90.20;;;;;;5008751;28;20085;-62
2022/11/12 06:39:58;;;;;;;9.25;5.57;;;8.60;90.20;;;;;;5007715;28;20037;-62
2022/11/12 06:42:23;;;;;;;6.60;5.90;;;8.60;90.20;;;;;;5007776;28;20040;-63
2022/11/12 06:44:49;;;;;;;8.45;5.78;;;8.60;90.10;;;;;;5007878;28;20037;-62
2022/11/12 06:47:14;;;;;;;6.88;6.00;;;8.60;90.10;;;;;;5006288;28;20047;-63
2022/11/12 06:49:40;;;;;;;14.65;5.60;;;8.60;90.10;;;;;;5007950;28;20484;-63
2022/11/12 06:52:05;;;;;;;7.60;5.68;;;8.70;90.20;;;;;;5007104;28;20056;-62
2022/11/12 06:54:31;;;;;;;7.60;5.95;;;8.60;90.50;;;;;;5009233;28;20064;-63
2022/11/12 06:56:57;;;;;;;14.23;7.32;;;8.60;90.20;;;;;;5009073;28;20077;-63
2022/11/12 06:59:22;;;;;;;7.43;6.65;;;8.60;90.10;;;;;;5009771;28;20042;-62
2022/11/12 07:01:48;;;;;;;8.27;6.85;;;8.60;90.10;;;;;;5007249;28;20045;-62
2022/11/12 07:04:13;;;;;;;8.35;7.45;;;8.60;90.00;;;;;;5002758;28;20125;-64
2022/11/12 07:06:39;;;;;;;7.43;6.43;;;8.70;90.00;;;;;;5002557;28;20058;-62
2022/11/12 07:09:05;;;;;;;6.78;5.70;;;8.70;90.00;;;;;;5009078;28;20048;-63
2022/11/12 07:11:31;;;;;;;7.20;5.10;;;8.70;90.00;;;;;;5004270;28;20061;-62
2022/11/12 07:13:57;;;;;;;7.35;5.70;;;8.70;90.00;;;;;;5008810;28;20087;-64
2022/11/12 07:16:22;;;;;;;8.13;5.43;;;8.70;90.00;;;;;;5004602;28;20031;-62
2022/11/12 07:18:48;;;;;;;11.88;10.50;;;8.70;89.90;;;;;;5001547;28;20034;-63
2022/11/12 07:21:19;;;;;;;8.65;6.82;;;8.70;89.90;;;;;;5001775;28;20160;-61
2022/11/12 07:23:45;;;;;;;7.75;6.25;;;8.70;90.00;;;;;;5000602;28;20033;-63
2022/11/12 07:26:17;;;;;;;6.63;5.85;;;8.70;90.00;;;;;;5003405;28;20037;-63
2022/11/12 07:28:44;;;;;;;9.93;6.07;;;8.70;89.90;;;;;;5002733;28;20057;-63
2022/11/12 07:31:11;;;;;;;6.97;5.93;;;8.70;90.30;;;;;;5002987;28;20030;-62
2022/11/12 07:33:37;;;;;;;6.97;5.80;;;8.70;89.90;;;;;;5003241;28;20565;-62
2022/11/12 07:36:11;;;;;;;6.85;6.05;;;8.80;90.00;;;;;;5004808;28;20252;-63
2022/11/12 07:38:38;;;;;;;7.95;6.25;;;8.70;89.90;;;;;;5005282;28;20046;-63
2022/11/12 07:41:07;;;;;;;6.75;5.60;;;8.80;89.80;;;;;;5001290;28;20038;-62
2022/11/12 07:43:34;;;;;;;5.65;5.03;;;8.70;89.50;;;;;;5003803;28;20070;-63
2022/11/12 07:46:02;;;;;;;7.70;5.70;;;8.70;89.30;;;;;;5004360;28;20045;-62
2022/11/12 07:48:29;;;;;;;8.98;5.20;;;8.70;89.30;;;;;;5001917;28;20069;-63
2022/11/12 07:51:15;;;;;;;10.65;5.15;;;8.70;89.20;;;;;;4999211;28;20030;-63
2022/11/12 07:53:41;;;;;;;8.40;5.82;;;8.70;90.00;;;;;;5003518;28;20045;-62
2022/11/12 07:56:10;;;;;;;10.82;5.80;;;8.60;89.10;;;;;;5005517;28;20157;-63
2022/11/12 07:58:36;;;;;;;10.02;5.97;;;8.60;89.20;;;;;;5000949;28;20477;-63
2022/11/12 08:01:34;;;;;;;6.00;5.32;;;8.50;89.20;;;;;;5000794;28;20038;-63
2022/11/12 08:04:00;;;;;;;6.30;5.30;;;8.50;89.70;;;;;;5002119;28;20046;-62
2022/11/12 08:06:27;;;;;;;5.88;5.13;;;8.50;89.70;;;;;;5002847;28;20093;-62
2022/11/12 08:08:54;;;;;;;8.10;5.63;;;8.40;89.90;;;;;;5003448;28;20161;-62
2022/11/12 08:11:20;;;;;;;10.38;5.68;;;8.40;89.90;;;;;;4998365;28;20120;-62
2022/11/12 08:13:45;;;;;;;6.20;5.32;;;8.40;90.00;;;;;;5002300;28;20043;-62
2022/11/12 08:16:11;;;;;;;6.53;5.50;;;8.40;90.00;;;;;;5002566;28;20628;-63
2022/11/12 08:18:37;;;;;;;7.20;5.40;;;8.40;90.10;;;;;;5002981;28;20084;-64
2022/11/12 08:21:05;;;;;;;5.82;4.78;;;8.40;90.10;;;;;;5003358;28;20524;-62
2022/11/12 08:23:31;;;;;;;8.18;5.90;;;8.40;90.20;;;;;;5002662;28;20129;-63
2022/11/12 08:26:01;;;;;;;7.68;6.28;;;8.50;90.20;;;;;;5001744;28;20049;-63
2022/11/12 08:28:32;;;;;;;7.03;5.85;;;8.50;90.20;;;;;;5001007;28;20041;-63
2022/11/12 08:31:03;;;;;;;8.32;6.43;;;8.50;90.10;;;;;;5002296;28;20501;-63
2022/11/12 08:33:29;;;;;;;7.65;6.03;;;8.50;90.10;;;;;;4998750;28;20382;-63
2022/11/12 08:35:55;;;;;;;8.65;6.20;;;8.60;90.00;;;;;;5002252;28;20042;-62
2022/11/12 08:38:20;;;;;;;8.60;6.60;;;8.60;89.80;;;;;;4999392;28;20044;-61
2022/11/12 08:40:46;;;;;;;8.82;5.97;;;8.60;89.50;;;;;;5003246;28;20041;-62
2022/11/12 08:43:12;;;;;;;9.48;6.47;;;8.50;89.60;;;;;;4999332;28;20045;-63
2022/11/12 08:45:39;;;;;;;8.88;6.60;;;8.50;90.00;;;;;;4998146;28;20041;-62
2022/11/12 08:48:13;;;;;;;10.88;6.75;;;8.50;90.00;;;;;;4983637;28;20064;-62
2022/11/12 08:50:39;;;;;;;8.27;6.55;;;8.50;90.00;;;;;;4989380;28;20121;-59
2022/11/12 08:53:12;;;;;;;7.53;6.40;;;8.50;90.10;;;;;;4983236;28;20576;-63
2022/11/12 08:55:38;;;;;;;9.27;6.78;;;8.50;90.20;;;;;;4987939;28;20042;-63
2022/11/12 08:58:05;;;;;;;8.95;6.80;;;8.50;90.20;;;;;;4984614;28;20471;-62
2022/11/12 09:00:33;;;;;;;10.45;6.78;;;8.60;90.20;;;;;;4987558;28;20549;-63
2022/11/12 09:03:03;;;;;;;17.15;6.57;;;8.60;90.20;;;;;;4983906;28;20041;-64
2022/11/12 09:05:29;;;;;;;11.50;6.72;;;8.60;90.10;;;;;;4993130;28;20044;-64
2022/11/12 09:08:10;;;;;;;8.80;7.13;;;8.60;90.00;;;;;;4991262;28;20053;-64
2022/11/12 09:10:37;;;;;;;13.85;6.90;;;8.60;89.90;;;;;;4983455;28;20042;-62
2022/11/12 09:13:03;;;;;;;10.27;6.97;;;8.60;90.00;;;;;;4996689;28;20330;-63
2022/11/12 09:15:30;;;;;;;13.40;8.18;;;8.50;90.00;;;;;;4991879;28;20069;-63
2022/11/12 09:18:03;;;;;;;10.27;7.30;;;8.50;90.10;;;;;;4985169;28;20041;-63
2022/11/12 09:20:30;;;;;;;11.30;7.75;;;8.50;90.30;;;;;;4993371;28;20041;-64
2022/11/12 09:23:04;;;;;;;11.27;7.43;;;8.50;90.30;;;;;;4992424;28;20236;-64
2022/11/12 09:25:30;;;;;;;11.57;7.10;;;8.60;90.30;;;;;;4987828;28;20092;-63
2022/11/12 09:27:56;;;;;;;9.73;7.57;;;8.60;90.30;;;;;;4983915;28;20045;-64
2022/11/12 09:30:22;;;;;;;11.35;7.28;;;8.70;90.40;;;;;;4986977;28;20374;-64
2022/11/12 09:32:48;;;;;;;15.07;11.10;;;8.70;90.40;;;;;;4988079;28;20057;-64
2022/11/12 09:35:13;;;;;;;11.13;8.30;;;8.80;90.40;;;;;;4989766;28;20149;-63
2022/11/12 09:37:39;;;;;;;12.50;8.20;;;8.80;90.40;;;;;;4996310;28;20039;-64
2022/11/12 09:40:06;;;;;;;12.75;10.23;;;8.80;90.40;;;;;;4989677;28;20026;-63
2022/11/12 09:42:35;;;;;;;12.80;9.13;;;8.90;90.40;;;;;;4989113;28;20203;-63
2022/11/12 09:45:23;;;;;;;12.32;9.88;;;9.00;90.40;;;;;;4995269;28;22015;-63
2022/11/12 09:48:01;;;;;;;15.45;11.48;;;9.00;90.30;;;;;;4995817;28;20053;-62
2022/11/12 09:50:51;;;;;;;20.25;18.08;;;9.10;90.30;;;;;;4993659;28;20045;-63
2022/11/12 09:53:34;;;;;;;12.00;8.20;;;9.10;90.20;;;;;;4997336;28;20042;-61
2022/11/12 09:56:04;;;;;;;10.43;8.40;;;9.10;90.20;;;;;;4991754;28;20046;-63
2022/11/12 09:58:29;;;;;;;10.30;7.78;;;9.20;90.10;;;;;;4992840;28;20485;-63
2022/11/12 10:01:00;;;;;;;12.00;8.77;;;9.20;90.10;;;;;;4976085;28;20034;-62
2022/11/12 10:03:47;;;;;;;15.93;8.18;;;9.20;90.00;;;;;;5000735;28;20474;-65
2022/11/12 10:06:20;;;;;;;11.38;7.97;;;9.20;90.10;;;;;;5002491;28;20022;-63
2022/11/12 10:09:07;;;;;;;13.82;9.75;;;9.20;90.20;;;;;;5007261;28;20042;-63
2022/11/12 10:16:41;;;;;;;12.50;9.30;;;9.30;90.10;;;;;;5010001;28;20048;-62
2022/11/12 10:17:57;;;;;;;14.45;10.00;;;9.40;90.00;;;;;;5010071;28;20046;-63
2022/11/12 10:20:41;;;;;;;12.93;9.88;;;9.40;90.00;;;;;;5007674;28;20065;-63
2022/11/12 10:23:25;;;;;;;11.43;8.55;;;9.40;90.10;;;;;;5009884;28;20033;-64
2022/11/12 10:25:55;;;;;;;11.98;8.88;;;9.50;90.00;;;;;;5005367;28;20046;-63
2022/11/12 10:28:28;;;;;;;12.90;9.25;;;9.50;89.90;;;;;;5004365;28;20125;-64
2022/11/12 10:30:59;;;;;;;12.93;8.52;;;9.50;89.80;;;;;;5008925;28;20034;-64
2022/11/12 10:33:29;;;;;;;12.10;9.10;;;9.50;89.80;;;;;;5009327;28;20502;-64
2022/11/12 10:36:04;;;;;;;12.93;8.85;;;9.50;89.80;;;;;;5007436;28;20034;-63
2022/11/12 10:38:33;;;;;;;13.00;8.57;;;9.60;89.90;;;;;;5002488;28;20041;-63
2022/11/12 10:41:16;;;;;;;13.00;9.57;;;9.60;89.70;;;;;;5004081;28;20103;-64
2022/11/12 10:43:59;;;;;;;11.98;9.05;;;9.60;89.60;;;;;;5002048;28;20034;-63
2022/11/12 10:46:31;;;;;;;11.82;8.27;;;9.70;89.70;;;;;;5001759;28;20038;-64
2022/11/12 10:49:23;;;;;;;12.13;8.63;;;9.70;90.10;;;;;;4998554;28;20054;-63
2022/11/12 10:51:57;;;;;;;14.80;9.57;;;9.70;89.80;;;;;;5001612;28;20034;-64
2022/11/12 10:54:26;;;;;;;16.10;10.67;;;9.80;89.80;;;;;;5009718;28;20514;-64
2022/11/12 10:56:52;;;;;;;13.90;9.50;;;9.80;89.50;;;;;;5009699;28;20293;-63
2022/11/12 10:59:20;;;;;;;13.18;9.75;;;9.80;89.40;;;;;;5010053;28;20052;-63
2022/11/12 11:01:57;;;;;;;13.75;9.43;;;9.80;89.30;;;;;;5010291;28;20045;-63
2022/11/12 11:04:30;;;;;;;13.25;9.50;;;9.90;89.10;;;;;;5007595;28;20121;-63
2022/11/12 11:07:22;;;;;;;12.65;9.27;;;9.90;89.10;;;;;;5004446;28;20486;-63
2022/11/12 11:09:59;;;;;;;14.65;9.60;;;9.90;89.00;;;;;;5007375;28;20042;-60
2022/11/12 11:12:29;;;;;;;12.35;9.10;;;9.90;89.00;;;;;;5003946;28;20041;-63
2022/11/12 11:15:06;;;;;;;12.60;9.23;;;9.90;89.00;;;;;;5007215;28;20126;-62
2022/11/12 11:17:33;;;;;;;13.63;9.55;;;9.90;88.80;;;;;;5008184;28;20034;-62
2022/11/12 11:19:59;;;;;;;13.15;9.73;;;9.90;89.00;;;;;;5008762;28;20026;-63
2022/11/12 11:22:34;;;;;;;14.18;10.13;;;9.90;89.30;;;;;;5008709;28;20056;-63
2022/11/12 11:25:28;;;;;;;15.38;10.55;;;10.00;89.50;;;;;;5006282;28;20061;-61
2022/11/12 11:28:02;;;;;;;16.15;10.43;;;10.00;89.00;;;;;;5008041;28;20073;-63
2022/11/12 11:30:28;;;;;;;14.23;10.02;;;10.00;89.00;;;;;;5007810;28;20045;-63
2022/11/12 11:32:56;;;;;;;14.10;9.95;;;9.90;89.10;;;;;;5008469;28;20033;-62
2022/11/12 11:35:40;;;;;;;14.32;10.18;;;10.00;89.20;;;;;;5006530;28;20041;-62
2022/11/12 11:38:31;;;;;;;14.82;10.30;;;10.00;89.20;;;;;;5007944;28;20067;-63
2022/11/12 11:41:10;;;;;;;14.23;10.43;;;10.00;89.20;;;;;;5006723;28;20442;-62
2022/11/12 11:43:51;;;;;;;11.93;8.77;;;10.00;89.30;;;;;;5006215;28;20861;-62
2022/11/12 11:46:54;;;;;;;13.10;9.48;;;10.10;89.40;;;;;;5006982;28;20026;-63
2022/11/12 11:49:25;;;;;;;13.70;9.93;;;10.10;89.30;;;;;;5008473;28;20042;-63
2022/11/12 11:52:13;;;;;;;12.15;8.85;;;10.20;89.00;;;;;;5008752;28;20117;-62
2022/11/12 11:54:52;;;;;;;13.75;8.90;;;10.20;88.80;;;;;;5008601;28;20053;-63
2022/11/12 11:57:23;;;;;;;12.30;8.82;;;10.20;89.70;;;;;;5009113;28;20084;-64
2022/11/12 12:00:22;;;;;;;13.02;9.55;;;10.30;89.10;;;;;;5009352;28;20034;-63
2022/11/12 12:03:06;;;;;;;13.15;9.02;;;10.30;88.90;;;;;;5007645;28;20030;-63
2022/11/12 12:05:49;;;;;;;12.25;8.68;;;10.30;88.90;;;;;;5008710;28;20084;-61
2022/11/12 12:08:33;;;;;;;13.25;9.52;;;10.40;89.00;;;;;;5007381;28;20029;-61
2022/11/12 12:11:31;;;;;;;12.38;9.10;;;10.50;88.90;;;;;;5003683;28;20610;-63
2022/11/12 12:14:31;;;;;;;13.52;8.52;;;10.50;88.60;;;;;;4994731;28;20118;-62
2022/11/12 12:17:26;;;;;;;12.50;8.77;;;10.60;88.40;;;;;;5006746;28;20037;-62
2022/11/12 12:20:18;;;;;;;13.52;9.55;;;10.60;88.60;;;;;;5006217;28;20038;-62
2022/11/12 12:22:48;;;;;;;12.75;9.50;;;10.70;88.20;;;;;;5008207;28;20490;-63
2022/11/12 12:25:22;;;;;;;11.15;8.57;;;10.70;88.30;;;;;;5008857;28;20069;-63
2022/11/12 12:27:54;;;;;;;12.15;9.45;;;10.70;88.20;;;;;;5008837;28;20089;-62
2022/11/12 12:30:23;;;;;;;13.77;9.73;;;10.70;88.10;;;;;;5009017;28;20073;-63
2022/11/12 12:33:20;;;;;;;13.10;9.00;;;10.70;88.20;;;;;;5008058;28;20502;-62
2022/11/12 12:36:06;;;;;;;10.43;8.32;;;10.80;88.00;;;;;;4994191;28;20533;-61
2022/11/12 12:38:43;;;;;;;12.00;9.23;;;10.80;87.80;;;;;;5021405;28;20069;-63
2022/11/12 12:41:12;;;;;;;13.20;9.60;;;10.80;87.90;;;;;;5006951;28;20108;-63
2022/11/12 12:43:47;;;;;;;12.82;9.73;;;10.80;88.00;;;;;;5005316;28;20049;-62
2022/11/12 12:46:15;;;;;;;13.95;10.10;;;10.90;87.80;;;;;;5007042;28;20628;-63
2022/11/12 12:48:44;;;;;;;12.65;9.90;;;10.90;87.40;;;;;;5005087;28;20046;-62
2022/11/12 12:51:10;;;;;;;13.13;9.60;;;11.00;87.10;;;;;;5007455;28;20057;-61
2022/11/12 12:53:36;;;;;;;13.20;9.77;;;11.00;88.00;;;;;;5005810;28;20112;-63
2022/11/12 12:56:31;;;;;;;12.07;9.27;;;10.90;86.60;;;;;;5005807;28;20034;-62
2022/11/12 12:59:02;;;;;;;11.53;9.03;;;10.90;85.80;;;;;;5001057;28;20594;-63
2022/11/12 13:01:32;;;;;;;18.00;10.98;;;10.90;86.70;;;;;;5007029;28;20672;-63
2022/11/12 13:04:02;;;;;;;13.68;10.32;;;10.80;86.60;;;;;;5005772;28;20529;-63
2022/11/12 13:06:45;;;;;;;13.25;9.73;;;10.80;87.00;;;;;;5004152;28;20069;-61
2022/11/12 13:09:14;;;;;;;14.10;9.88;;;10.70;87.30;;;;;;5005866;28;20037;-62
2022/11/12 13:14:35;;;;;;;13.43;10.02;;;10.70;87.40;;;;;;5006245;28;20528;-62
2022/11/12 13:17:10;;;;;;;11.98;9.02;;;10.70;87.10;;;;;;5005735;28;20674;-63
2022/11/12 13:19:44;;;;;;;;;;;10.70;87.30;;;;;;5007109;28;20521;-62
2022/11/12 13:22:46;;;;;;;14.48;9.95;;;10.70;87.40;;;;;;5004696;28;19921;-61
2022/11/12 13:25:12;;;;;;;12.27;8.82;;;10.70;86.70;;;;;;5002271;28;20054;-62
2022/11/12 13:27:44;;;;;;;13.10;9.18;;;10.70;87.10;;;;;;5004859;28;20062;-63